createdAt,value
2022-08-26T00:01:56.459Z,3.08
2022-08-26T00:04:25.102Z,2.90
2022-08-26T00:06:53.743Z,2.70
2022-08-26T00:09:22.582Z,2.97
2022-08-26T00:11:53.775Z,3.17
2022-08-26T00:14:21.273Z,2.92
2022-08-26T00:16:48.993Z,3.00
2022-08-26T00:19:20.307Z,3.00
2022-08-26T00:21:49.565Z,3.05
2022-08-26T00:24:18.976Z,3.30
2022-08-26T00:26:46.498Z,3.28
2022-08-26T00:29:13.870Z,3.70
2022-08-26T00:31:42.545Z,3.45
2022-08-26T00:34:12.487Z,3.60
2022-08-26T00:36:40.889Z,3.60
2022-08-26T00:39:08.858Z,3.15
2022-08-26T00:41:39.148Z,3.60
2022-08-26T00:44:06.753Z,3.75
2022-08-26T00:46:46.604Z,3.90
2022-08-26T00:49:25.730Z,3.28
2022-08-26T00:51:58.709Z,3.67
2022-08-26T00:54:33.945Z,4.05
2022-08-26T00:57:16.239Z,3.70
2022-08-26T01:00:06.646Z,3.63
2022-08-26T01:02:33.889Z,3.40
2022-08-26T01:05:04.002Z,3.53
2022-08-26T01:07:32.121Z,3.90
2022-08-26T01:10:06.324Z,3.78
2022-08-26T01:12:40.655Z,4.40
2022-08-26T01:15:10.814Z,4.10
2022-08-26T01:17:40.006Z,4.45
2022-08-26T01:20:21.587Z,4.00
2022-08-26T01:22:58.870Z,3.85
2022-08-26T01:25:33.162Z,4.32
2022-08-26T01:28:05.849Z,3.63
2022-08-26T01:30:34.433Z,4.28
2022-08-26T01:33:08.230Z,4.50
2022-08-26T01:35:36.238Z,4.70
2022-08-26T01:38:03.992Z,4.43
2022-08-26T01:40:35.603Z,4.20
2022-08-26T01:43:04.020Z,4.63
2022-08-26T01:45:33.961Z,5.18
2022-08-26T01:48:04.755Z,4.95
2022-08-26T01:50:35.376Z,4.63
2022-08-26T01:53:10.578Z,5.10
2022-08-26T01:55:41.688Z,5.25
2022-08-26T01:58:17.499Z,4.55
2022-08-26T02:00:46.445Z,4.43
2022-08-26T02:03:21.429Z,5.00
2022-08-26T02:06:01.711Z,5.13
2022-08-26T02:08:44.138Z,5.30
2022-08-26T02:11:11.730Z,5.15
2022-08-26T02:13:45.983Z,5.60
2022-08-26T02:16:18.379Z,4.65
2022-08-26T02:18:46.877Z,4.93
2022-08-26T02:21:13.986Z,5.47
2022-08-26T02:23:42.483Z,5.65
2022-08-26T02:26:20.968Z,5.70
2022-08-26T02:29:00.033Z,5.65
2022-08-26T02:31:27.482Z,5.50
2022-08-26T02:33:54.175Z,5.38
2022-08-26T02:36:24.270Z,5.78
2022-08-26T02:38:55.571Z,6.00
2022-08-26T02:41:23.056Z,5.72
2022-08-26T02:43:49.955Z,5.60
2022-08-26T02:46:27.908Z,6.07
2022-08-26T02:48:57.879Z,5.85
2022-08-26T02:51:24.912Z,5.47
2022-08-26T02:53:51.727Z,6.38
2022-08-26T02:56:18.535Z,5.90
2022-08-26T02:58:45.712Z,5.75
2022-08-26T03:01:29.743Z,5.75
2022-08-26T03:03:57.499Z,5.78
2022-08-26T03:06:24.704Z,5.50
2022-08-26T03:08:52.699Z,6.88
2022-08-26T03:11:20.088Z,5.95
2022-08-26T03:13:48.570Z,6.22
2022-08-26T03:16:15.770Z,6.18
2022-08-26T03:18:42.831Z,5.85
2022-08-26T03:21:17.675Z,6.50
2022-08-26T03:23:45.419Z,5.95
2022-08-26T03:26:15.595Z,6.57
2022-08-26T03:29:01.210Z,6.75
2022-08-26T03:31:29.859Z,6.63
2022-08-26T03:33:59.263Z,6.47
2022-08-26T03:36:27.115Z,6.50
2022-08-26T03:38:54.319Z,6.35
2022-08-26T03:41:21.262Z,5.75
2022-08-26T03:43:50.559Z,6.40
2022-08-26T03:46:20.559Z,6.60
2022-08-26T03:48:48.001Z,6.43
2022-08-26T03:51:19.115Z,6.13
2022-08-26T03:53:48.023Z,6.32
2022-08-26T03:56:15.336Z,6.50
2022-08-26T03:58:44.223Z,6.60
2022-08-26T04:01:12.571Z,6.95
2022-08-26T04:03:57.724Z,6.28
2022-08-26T04:06:37.960Z,6.30
2022-08-26T04:09:11.612Z,6.10
2022-08-26T04:11:39.605Z,6.50
2022-08-26T04:14:20.021Z,6.75
2022-08-26T04:16:48.551Z,6.75
2022-08-26T04:19:17.319Z,6.88
2022-08-26T04:21:45.432Z,6.88
2022-08-26T04:24:15.557Z,6.80
2022-08-26T04:26:43.917Z,6.80
2022-08-26T04:29:18.788Z,6.78
2022-08-26T04:31:48.022Z,6.45
2022-08-26T04:34:16.557Z,6.72
2022-08-26T04:36:44.351Z,6.35
2022-08-26T04:39:14.777Z,6.13
2022-08-26T04:41:41.460Z,6.60
2022-08-26T04:44:08.214Z,6.53
2022-08-26T04:46:39.805Z,6.22
2022-08-26T04:49:11.512Z,6.68
2022-08-26T04:51:38.995Z,6.50
2022-08-26T04:54:07.086Z,6.82
2022-08-26T04:56:38.616Z,6.93
2022-08-26T04:59:16.842Z,5.97
2022-08-26T05:01:49.065Z,6.30
2022-08-26T05:04:18.801Z,6.53
2022-08-26T05:06:48.751Z,6.88
2022-08-26T05:09:18.235Z,6.70
2022-08-26T05:11:45.940Z,6.55
2022-08-26T05:14:20.458Z,6.50
2022-08-26T05:16:47.990Z,6.97
2022-08-26T05:19:17.237Z,6.55
2022-08-26T05:21:47.169Z,6.50
2022-08-26T05:24:15.020Z,6.70
2022-08-26T05:26:42.091Z,6.65
2022-08-26T05:29:12.056Z,6.85
2022-08-26T05:31:38.833Z,7.20
2022-08-26T05:34:05.901Z,6.85
2022-08-26T05:36:35.631Z,6.20
2022-08-26T05:39:06.022Z,5.82
2022-08-26T05:41:38.562Z,5.50
2022-08-26T05:44:09.260Z,5.05
2022-08-26T05:46:37.369Z,4.60
2022-08-26T05:49:06.090Z,5.47
2022-08-26T05:51:46.129Z,5.32
2022-08-26T05:54:14.967Z,5.22
2022-08-26T05:56:52.167Z,5.22
2022-08-26T05:59:21.368Z,5.18
2022-08-26T06:01:52.708Z,5.28
2022-08-26T06:04:20.131Z,5.32
2022-08-26T06:06:47.125Z,5.05
2022-08-26T06:09:13.993Z,5.00
2022-08-26T06:11:44.357Z,4.82
2022-08-26T06:14:11.589Z,4.68
2022-08-26T06:16:41.380Z,4.60
2022-08-26T06:19:11.501Z,4.93
2022-08-26T06:21:41.615Z,5.07
2022-08-26T06:24:31.643Z,4.75
2022-08-26T06:27:03.463Z,4.00
2022-08-26T06:29:34.595Z,4.63
2022-08-26T06:32:05.458Z,4.97
2022-08-26T06:34:34.026Z,5.20
2022-08-26T06:37:06.462Z,4.90
2022-08-26T06:39:33.722Z,4.82
2022-08-26T06:42:00.936Z,4.80
2022-08-26T06:44:29.960Z,4.65
2022-08-26T06:47:00.828Z,5.07
2022-08-26T06:49:27.849Z,5.80
2022-08-26T06:51:58.082Z,4.97
2022-08-26T06:54:31.398Z,4.97
2022-08-26T06:56:58.383Z,4.78
2022-08-26T06:59:25.356Z,4.90
2022-08-26T07:01:52.344Z,4.72
2022-08-26T07:04:21.906Z,4.88
2022-08-26T07:06:52.822Z,4.30
2022-08-26T07:09:22.612Z,4.75
2022-08-26T07:11:51.113Z,4.75
2022-08-26T07:14:21.225Z,4.43
2022-08-26T07:17:13.933Z,4.40
2022-08-26T07:19:42.113Z,4.15
2022-08-26T07:22:14.895Z,4.57
2022-08-26T07:24:43.412Z,4.30
2022-08-26T07:27:15.026Z,4.38
2022-08-26T07:29:43.389Z,4.40
2022-08-26T07:32:13.070Z,4.72
2022-08-26T07:34:41.895Z,4.45
2022-08-26T07:37:09.080Z,4.13
2022-08-26T07:39:36.080Z,4.13
2022-08-26T07:42:07.427Z,3.90
2022-08-26T07:44:36.270Z,4.13
2022-08-26T07:47:03.396Z,4.05
2022-08-26T07:49:38.119Z,4.22
2022-08-26T07:52:05.824Z,3.97
2022-08-26T07:54:32.725Z,3.90
2022-08-26T07:56:59.556Z,4.40
2022-08-26T07:59:26.265Z,4.03
2022-08-26T08:01:53.041Z,4.25
2022-08-26T08:04:25.484Z,4.50
2022-08-26T08:06:54.820Z,4.13
2022-08-26T08:09:22.294Z,4.05
2022-08-26T08:11:49.640Z,3.53
2022-08-26T08:14:18.320Z,3.88
2022-08-26T08:16:51.174Z,3.90
2022-08-26T08:19:21.477Z,3.30
2022-08-26T08:21:48.818Z,4.05
2022-08-26T08:24:16.164Z,3.72
2022-08-26T08:26:42.826Z,3.78
2022-08-26T08:29:09.564Z,3.83
2022-08-26T08:34:29.046Z,3.60
2022-08-26T08:36:57.034Z,3.60
2022-08-26T08:39:25.358Z,3.90
2022-08-26T08:42:23.652Z,3.47
2022-08-26T08:44:53.093Z,3.88
2022-08-26T08:47:39.119Z,4.13
2022-08-26T08:50:24.652Z,4.53
2022-08-26T08:53:08.883Z,4.47
2022-08-26T08:56:24.710Z,4.82
2022-08-26T08:59:15.623Z,4.25
2022-08-26T09:01:52.417Z,4.55
2022-08-26T09:04:48.108Z,4.68
2022-08-26T09:07:23.473Z,4.40
2022-08-26T09:10:17.801Z,4.70
2022-08-26T09:12:47.540Z,4.68
2022-08-26T09:15:31.395Z,4.43
2022-08-26T09:18:25.094Z,4.18
2022-08-26T09:21:08.625Z,4.18
2022-08-26T09:23:41.712Z,3.95
2022-08-26T09:26:30.573Z,4.40
2022-08-26T09:29:02.285Z,4.57
2022-08-26T09:31:39.013Z,4.05
2022-08-26T09:34:25.483Z,4.40
2022-08-26T09:36:58.889Z,4.72
2022-08-26T09:39:28.269Z,4.30
2022-08-26T09:42:22.224Z,4.72
2022-08-26T09:45:04.756Z,4.28
2022-08-26T09:47:54.393Z,4.30
2022-08-26T09:50:53.843Z,4.60
2022-08-26T09:53:36.514Z,4.20
2022-08-26T09:56:34.411Z,3.97
2022-08-26T09:59:02.808Z,4.38
2022-08-26T10:01:41.644Z,4.65
2022-08-26T10:04:25.191Z,4.32
2022-08-26T10:07:07.190Z,5.00
2022-08-26T10:09:42.937Z,5.00
2022-08-26T10:12:14.719Z,5.43
2022-08-26T10:14:50.235Z,5.15
2022-08-26T10:17:23.303Z,5.80
2022-08-26T10:20:00.004Z,5.90
2022-08-26T10:23:06.615Z,5.47
2022-08-26T10:25:49.230Z,5.40
2022-08-26T10:28:32.401Z,4.70
2022-08-26T10:31:27.841Z,4.43
2022-08-26T10:34:00.231Z,5.53
2022-08-26T10:39:58.761Z,4.70
2022-08-26T10:43:10.430Z,4.90
2022-08-26T10:45:47.953Z,4.30
2022-08-26T10:49:03.360Z,4.15
2022-08-26T10:51:38.577Z,3.78
2022-08-26T10:54:25.961Z,3.80
2022-08-26T10:56:56.800Z,5.05
2022-08-26T11:00:00.370Z,5.45
2022-08-26T11:02:47.425Z,5.40
2022-08-26T11:05:22.605Z,8.05
2022-08-26T11:07:54.828Z,7.72
2022-08-26T11:10:21.634Z,7.35
2022-08-26T11:12:51.744Z,7.55
2022-08-26T11:15:24.672Z,7.55
2022-08-26T11:17:51.595Z,7.25
2022-08-26T11:20:47.223Z,7.80
2022-08-26T11:23:22.791Z,7.38
2022-08-26T11:25:56.989Z,6.88
2022-08-26T11:28:45.732Z,7.63
2022-08-26T11:31:25.586Z,7.45
2022-08-26T11:34:00.715Z,7.72
2022-08-26T11:36:46.634Z,7.00
2022-08-26T11:39:31.821Z,6.63
2022-08-26T11:42:27.753Z,7.05
2022-08-26T11:44:57.933Z,7.07
2022-08-26T11:47:31.507Z,6.43
2022-08-26T11:50:28.533Z,6.63
2022-08-26T11:53:07.642Z,6.38
2022-08-26T11:55:42.338Z,6.95
2022-08-26T11:58:13.274Z,7.10
2022-08-26T12:00:57.822Z,6.40
2022-08-26T12:03:50.554Z,7.10
2022-08-26T12:06:34.039Z,7.30
2022-08-26T12:09:05.949Z,6.70
2022-08-26T12:11:36.277Z,6.93
2022-08-26T12:14:21.068Z,6.68
2022-08-26T12:16:47.938Z,6.45
2022-08-26T12:19:28.244Z,6.38
2022-08-26T12:22:19.200Z,6.70
2022-08-26T12:25:05.337Z,7.15
2022-08-26T12:27:47.875Z,6.53
2022-08-26T12:30:26.036Z,6.32
2022-08-26T12:33:21.861Z,6.22
2022-08-26T12:35:54.813Z,6.53
2022-08-26T12:38:25.036Z,6.32
2022-08-26T12:40:52.087Z,6.80
2022-08-26T12:43:44.726Z,6.47
2022-08-26T12:46:24.836Z,6.25
2022-08-26T12:48:51.647Z,6.30
2022-08-26T12:51:28.824Z,6.60
2022-08-26T12:53:56.267Z,6.75
2022-08-26T12:56:39.346Z,6.50
2022-08-26T12:59:19.770Z,6.22
2022-08-26T13:01:48.274Z,6.10
2022-08-26T13:04:42.531Z,5.55
2022-08-26T13:07:24.687Z,4.75
2022-08-26T13:09:55.036Z,5.10
2022-08-26T13:12:28.578Z,4.47
2022-08-26T13:14:57.383Z,5.85
2022-08-26T13:17:25.489Z,5.88
2022-08-26T13:19:52.114Z,5.63
2022-08-26T13:22:24.177Z,6.90
2022-08-26T13:24:56.288Z,7.38
2022-08-26T13:27:26.127Z,8.20
2022-08-26T13:29:54.839Z,7.88
2022-08-26T13:32:22.404Z,8.15
2022-08-26T13:34:54.054Z,8.20
2022-08-26T13:37:29.320Z,8.68
2022-08-26T13:40:04.810Z,9.20
2022-08-26T13:42:31.600Z,9.05
2022-08-26T13:44:58.790Z,10.02
2022-08-26T13:47:25.918Z,9.50
2022-08-26T13:49:55.774Z,9.65
2022-08-26T13:52:30.251Z,9.93
2022-08-26T13:54:59.937Z,10.35
2022-08-26T13:57:29.853Z,11.27
2022-08-26T13:59:58.915Z,10.65
2022-08-26T14:02:27.444Z,11.00
2022-08-26T14:04:55.115Z,12.25
2022-08-26T14:07:22.585Z,12.80
2022-08-26T14:09:49.304Z,13.63
2022-08-26T14:12:16.546Z,15.23
2022-08-26T14:14:43.452Z,14.85
2022-08-26T14:17:12.139Z,15.15
2022-08-26T14:19:40.327Z,14.82
2022-08-26T14:22:07.000Z,14.82
2022-08-26T14:24:33.633Z,16.10
2022-08-26T14:27:01.306Z,15.27
2022-08-26T14:29:28.221Z,15.85
2022-08-26T14:31:56.903Z,16.13
2022-08-26T14:34:24.650Z,15.15
2022-08-26T14:36:51.275Z,16.67
2022-08-26T14:39:17.914Z,16.35
2022-08-26T14:41:55.443Z,17.63
2022-08-26T14:44:28.476Z,16.98
2022-08-26T14:46:55.885Z,17.55
2022-08-26T14:49:24.291Z,19.02
2022-08-26T14:51:50.980Z,18.88
2022-08-26T14:54:19.890Z,17.42
2022-08-26T14:56:55.665Z,18.05
2022-08-26T14:59:35.217Z,17.92
2022-08-26T15:02:02.978Z,18.15
2022-08-26T15:04:29.827Z,17.73
2022-08-26T15:06:59.488Z,17.92
2022-08-26T15:09:28.037Z,18.85
2022-08-26T15:11:55.313Z,17.48
2022-08-26T15:14:23.517Z,17.08
2022-08-26T15:16:53.737Z,17.60
2022-08-26T15:19:20.896Z,17.00
2022-08-26T15:21:47.982Z,15.77
2022-08-26T15:24:18.693Z,17.35
2022-08-26T15:26:46.598Z,15.25
2022-08-26T15:29:14.455Z,16.00
2022-08-26T15:31:41.533Z,15.00
2022-08-26T15:34:16.066Z,14.15
2022-08-26T15:36:45.562Z,12.48
2022-08-26T15:39:14.253Z,12.23
2022-08-26T15:41:41.089Z,11.63
2022-08-26T15:44:10.527Z,11.20
2022-08-26T15:46:37.836Z,11.73
2022-08-26T15:49:06.880Z,11.30
2022-08-26T15:51:45.275Z,11.15
2022-08-26T15:54:13.874Z,12.27
2022-08-26T15:56:40.534Z,12.50
2022-08-26T15:59:08.014Z,12.00
2022-08-26T16:01:35.975Z,13.55
2022-08-26T16:04:04.041Z,12.32
2022-08-26T16:06:34.241Z,13.05
2022-08-26T16:09:01.622Z,13.98
2022-08-26T16:11:28.938Z,15.43
2022-08-26T16:13:55.738Z,18.52
2022-08-26T16:16:23.081Z,18.58
2022-08-26T16:18:50.251Z,19.00
2022-08-26T16:21:21.247Z,20.52
2022-08-26T16:23:48.528Z,19.10
2022-08-26T16:26:21.248Z,18.85
2022-08-26T16:28:48.247Z,19.73
2022-08-26T16:31:15.865Z,18.67
2022-08-26T16:33:42.635Z,19.00
2022-08-26T16:36:11.178Z,18.85
2022-08-26T16:38:38.946Z,17.52
2022-08-26T16:41:06.885Z,18.10
2022-08-26T16:43:34.681Z,17.15
2022-08-26T16:46:01.517Z,17.30
2022-08-26T16:48:28.652Z,16.38
2022-08-26T16:50:55.422Z,15.45
2022-08-26T16:53:23.239Z,15.05
2022-08-26T16:55:51.336Z,14.98
2022-08-26T16:58:21.995Z,15.68
2022-08-26T17:00:49.699Z,15.93
2022-08-26T17:03:16.960Z,16.52
2022-08-26T17:05:44.356Z,15.20
2022-08-26T17:08:21.876Z,16.67
2022-08-26T17:10:55.321Z,15.95
2022-08-26T17:13:34.611Z,15.98
2022-08-26T17:16:04.689Z,16.30
2022-08-26T17:18:32.755Z,18.10
2022-08-26T17:21:07.820Z,16.42
2022-08-26T17:23:35.420Z,15.93
2022-08-26T17:26:02.655Z,17.02
2022-08-26T17:28:29.522Z,15.40
2022-08-26T17:30:58.279Z,15.20
2022-08-26T17:33:26.149Z,16.05
2022-08-26T17:35:53.701Z,16.30
2022-08-26T17:38:21.295Z,16.75
2022-08-26T17:40:51.388Z,17.95
2022-08-26T17:43:18.972Z,17.67
2022-08-26T17:45:45.746Z,17.15
2022-08-26T17:48:12.582Z,15.45
2022-08-26T17:50:43.214Z,16.67
2022-08-26T17:53:18.846Z,17.73
2022-08-26T17:55:47.713Z,17.20
2022-08-26T17:58:17.751Z,18.25
2022-08-26T18:00:49.781Z,18.08
2022-08-26T18:03:18.300Z,18.55
2022-08-26T18:05:50.696Z,18.85
2022-08-26T18:08:17.551Z,18.33
2022-08-26T18:10:44.784Z,18.50
2022-08-26T18:13:12.257Z,17.55
2022-08-26T18:15:40.465Z,16.33
2022-08-26T18:18:07.694Z,17.02
2022-08-26T18:20:34.986Z,15.27
2022-08-26T18:23:01.652Z,15.98
2022-08-26T18:25:28.449Z,15.40
2022-08-26T18:27:55.189Z,14.48
2022-08-26T18:30:22.544Z,13.75
2022-08-26T18:32:51.320Z,14.68
2022-08-26T18:35:18.985Z,14.85
2022-08-26T18:37:46.137Z,12.95
2022-08-26T18:40:14.481Z,13.02
2022-08-26T18:42:41.488Z,14.65
2022-08-26T18:45:10.049Z,13.02
2022-08-26T18:47:43.242Z,13.85
2022-08-26T18:50:10.965Z,12.55
2022-08-26T18:52:38.333Z,12.93
2022-08-26T18:55:05.953Z,14.02
2022-08-26T18:57:32.620Z,13.15
2022-08-26T18:59:59.325Z,13.45
2022-08-26T19:02:26.193Z,13.32
2022-08-26T19:04:52.957Z,13.65
2022-08-26T19:07:20.489Z,12.50
2022-08-26T19:09:47.297Z,12.40
2022-08-26T19:12:20.662Z,11.10
2022-08-26T19:14:47.415Z,12.88
2022-08-26T19:17:14.300Z,12.57
2022-08-26T19:19:41.003Z,11.73
2022-08-26T19:22:07.724Z,12.05
2022-08-26T19:24:34.691Z,11.98
2022-08-26T19:27:03.167Z,11.07
2022-08-26T19:29:35.532Z,12.02
2022-08-26T19:32:03.860Z,11.10
2022-08-26T19:34:31.159Z,11.82
2022-08-26T19:36:58.287Z,11.20
2022-08-26T19:39:26.440Z,11.32
2022-08-26T19:41:53.389Z,11.32
2022-08-26T19:44:41.034Z,11.43
2022-08-26T19:47:10.831Z,10.27
2022-08-26T19:49:38.093Z,11.00
2022-08-26T19:52:05.906Z,10.20
2022-08-26T19:54:33.429Z,10.98
2022-08-26T19:57:00.349Z,10.60
2022-08-26T19:59:27.138Z,10.95
2022-08-26T20:02:00.683Z,10.65
2022-08-26T20:04:30.547Z,10.07
2022-08-26T20:07:00.229Z,9.85
2022-08-26T20:09:29.500Z,9.73
2022-08-26T20:11:56.973Z,10.20
2022-08-26T20:14:25.231Z,10.57
2022-08-26T20:16:52.835Z,10.52
2022-08-26T20:19:38.136Z,10.27
2022-08-26T20:22:05.465Z,10.55
2022-08-26T20:24:33.208Z,10.07
2022-08-26T20:27:01.530Z,10.27
2022-08-26T20:29:32.148Z,10.35
2022-08-26T20:31:59.032Z,10.18
2022-08-26T20:34:26.206Z,9.05
2022-08-26T20:36:53.015Z,9.05
2022-08-26T20:39:21.008Z,9.40
2022-08-26T20:41:48.706Z,9.50
2022-08-26T20:44:16.558Z,9.50
2022-08-26T20:46:44.203Z,9.20
2022-08-26T20:49:11.222Z,8.55
2022-08-26T20:51:37.948Z,8.45
2022-08-26T20:54:06.444Z,9.15
2022-08-26T20:56:33.958Z,9.25
2022-08-26T20:59:01.672Z,8.63
2022-08-26T21:01:34.470Z,8.45
2022-08-26T21:04:08.488Z,8.38
2022-08-26T21:06:36.156Z,7.63
2022-08-26T21:09:06.716Z,8.40
2022-08-26T21:11:35.037Z,8.23
2022-08-26T21:14:06.654Z,8.38
2022-08-26T21:16:43.862Z,8.40
2022-08-26T21:19:13.811Z,8.40
2022-08-26T21:21:41.135Z,7.70
2022-08-26T21:24:08.183Z,8.32
2022-08-26T21:26:35.031Z,7.97
2022-08-26T21:29:02.404Z,8.30
2022-08-26T21:31:31.587Z,7.55
2022-08-26T21:33:59.288Z,7.93
2022-08-26T21:36:26.499Z,7.63
2022-08-26T21:38:57.015Z,7.10
2022-08-26T21:41:24.851Z,6.75
2022-08-26T21:43:57.840Z,7.88
2022-08-26T21:46:27.714Z,7.60
2022-08-26T21:48:58.550Z,7.25
2022-08-26T21:51:29.651Z,8.18
2022-08-26T21:53:57.990Z,6.63
2022-08-26T21:56:27.687Z,6.78
2022-08-26T21:58:55.953Z,6.90
2022-08-26T22:01:26.279Z,7.72
2022-08-26T22:03:53.584Z,7.30
2022-08-26T22:06:26.749Z,7.88
2022-08-26T22:08:54.109Z,7.22
2022-08-26T22:11:20.871Z,6.75
2022-08-26T22:13:50.817Z,7.28
2022-08-26T22:16:19.025Z,7.25
2022-08-26T22:18:45.925Z,7.20
2022-08-26T22:21:19.768Z,6.95
2022-08-26T22:23:47.412Z,6.72
2022-08-26T22:26:25.318Z,6.20
2022-08-26T22:28:58.862Z,7.25
2022-08-26T22:31:37.129Z,6.95
2022-08-26T22:34:11.665Z,6.75
2022-08-26T22:36:44.411Z,6.50
2022-08-26T22:39:14.313Z,6.18
2022-08-26T22:41:43.141Z,6.85
2022-08-26T22:44:11.552Z,6.97
2022-08-26T22:46:39.153Z,6.43
2022-08-26T22:49:08.625Z,6.68
2022-08-26T22:51:35.352Z,6.13
2022-08-26T22:54:01.995Z,7.00
2022-08-26T22:56:28.743Z,6.40
2022-08-26T22:58:55.423Z,6.95
2022-08-26T23:01:22.171Z,6.88
2022-08-26T23:03:49.132Z,6.95
2022-08-26T23:06:16.208Z,6.25
2022-08-26T23:08:45.163Z,6.40
2022-08-26T23:11:13.756Z,6.85
2022-08-26T23:13:41.072Z,6.82
2022-08-26T23:16:11.796Z,6.03
2022-08-26T23:18:40.390Z,6.80
2022-08-26T23:21:07.559Z,6.25
2022-08-26T23:23:35.157Z,6.32
2022-08-26T23:26:06.022Z,6.47
2022-08-26T23:28:34.384Z,5.97
2022-08-26T23:31:01.053Z,5.38
2022-08-26T23:33:48.106Z,6.43
2022-08-26T23:36:18.188Z,5.68
2022-08-26T23:38:48.134Z,6.57
2022-08-26T23:41:21.775Z,6.35
2022-08-26T23:43:49.029Z,5.80
2022-08-26T23:46:15.800Z,6.10
2022-08-26T23:48:42.498Z,6.13
2022-08-26T23:51:29.103Z,6.90
2022-08-26T23:53:56.035Z,6.43
2022-08-26T23:56:22.718Z,6.88
2022-08-26T23:58:50.363Z,6.25
